Time;durP1;ratioP1;P1;durP2;ratioP2;P2;SDS_P1;SDS_P2;PMS_P1;PMS_P2;Temp;Humidity;BMP_temperature;BMP_pressure;BME280_temperature;BME280_humidity;BME280_pressure;Samples;Min_cycle;Max_cycle;Signal;HPM_P1;HPM_P2
2022/08/07 00:02:12;;;;;;;4.35;1.08;;;;;;;16.55;100.00;99722.75;4384321;32;20026;-71
2022/08/07 00:04:38;;;;;;;1.65;1.35;;;;;;;15.76;100.00;99627.03;4385276;32;20372;-71
2022/08/07 00:07:04;;;;;;;1.80;1.30;;;;;;;16.53;100.00;99720.31;4385189;32;20039;-70
2022/08/07 00:09:31;;;;;;;1.42;1.27;;;;;;;16.12;100.00;99689.59;4397704;32;20027;-71
2022/08/07 00:11:57;;;;;;;2.67;1.33;;;;;;;15.97;100.00;99683.06;4398573;32;20113;-71
2022/08/07 00:14:25;;;;;;;1.35;1.10;;;;;;;16.15;100.00;99716.22;4400387;32;20432;-71
2022/08/07 00:17:01;;;;;;;5.85;2.75;;;;;;;15.86;100.00;99676.00;4399823;32;20455;-71
2022/08/07 00:19:30;;;;;;;1.25;1.12;;;;;;;16.11;100.00;99726.00;4400609;32;20035;-71
2022/08/07 00:22:02;;;;;;;2.10;1.45;;;;;;;15.71;100.00;99679.44;4398786;32;20044;-71
2022/08/07 00:24:29;;;;;;;5.97;1.23;;;;;;;15.85;100.00;99685.22;4413168;32;20042;-71
2022/08/07 00:26:55;;;;;;;1.95;1.75;;;;;;;15.46;100.00;99639.50;4427809;32;20030;-71
2022/08/07 00:29:24;;;;;;;2.30;1.35;;;;;;;15.47;100.00;99635.69;4430768;32;20070;-71
2022/08/07 00:31:53;;;;;;;2.42;1.23;;;;;;;16.01;100.00;99720.56;4430003;32;20099;-74
2022/08/07 00:34:19;;;;;;;2.03;1.15;;;;;;;15.91;100.00;99716.72;4430528;32;20408;-72
2022/08/07 00:36:45;;;;;;;1.42;0.85;;;;;;;15.89;100.00;99718.06;4400218;32;20028;-71
2022/08/07 00:39:21;;;;;;;1.27;1.10;;;;;;;15.86;100.00;99724.88;4400118;32;20047;-71
2022/08/07 00:41:57;;;;;;;1.10;1.02;;;;;;;15.99;100.00;99728.97;4400279;32;20056;-74
2022/08/07 00:44:24;;;;;;;2.67;1.40;;;;;;;16.05;100.00;99732.50;4400191;32;21020;-71
2022/08/07 00:46:51;;;;;;;2.97;1.50;;;;;;;16.00;100.00;99735.19;4398756;32;20445;-72
2022/08/07 00:49:17;;;;;;;5.78;1.90;;;;;;;15.45;100.00;99648.72;4399989;32;20031;-71
2022/08/07 00:51:44;;;;;;;10.75;1.42;;;;;;;15.96;100.00;99724.88;4398590;32;20103;-74
2022/08/07 00:54:13;;;;;;;6.45;1.77;;;;;;;15.84;100.00;99742.50;4398832;32;20066;-71
2022/08/07 00:56:40;;;;;;;1.12;1.08;;;;;;;15.70;100.00;99737.53;4400085;32;20046;-72
2022/08/07 00:59:07;;;;;;;2.95;2.17;;;;;;;15.42;100.00;99695.38;4429344;32;20071;-71
2022/08/07 01:01:33;;;;;;;1.17;1.17;;;;;;;15.59;100.00;99738.59;4430673;32;20026;-71
2022/08/07 01:04:04;;;;;;;1.30;1.15;;;;;;;15.33;100.00;99696.94;4427412;32;20026;-72
2022/08/07 01:06:31;;;;;;;4.10;1.23;;;;;;;15.28;100.00;99697.75;4430333;32;20043;-71
2022/08/07 01:08:58;;;;;;;1.42;1.33;;;;;;;15.43;100.00;99732.28;4462436;32;20026;-71
2022/08/07 01:11:26;;;;;;;2.62;1.33;;;;;;;15.33;100.00;99726.78;4463580;32;20041;-71
2022/08/07 01:13:52;;;;;;;4.37;1.17;;;;;;;15.14;100.00;99697.41;4461808;32;20045;-74
2022/08/07 01:16:19;;;;;;;8.38;1.62;;;;;;;15.17;100.00;99698.78;4449405;32;20064;-72
2022/08/07 01:18:45;;;;;;;1.42;1.20;;;;;;;15.37;100.00;99728.72;4463107;32;20378;-71
2022/08/07 01:21:18;;;;;;;1.52;1.20;;;;;;;15.07;100.00;99707.69;4430564;32;20096;-71
2022/08/07 01:23:46;;;;;;;2.05;1.27;;;;;;;15.33;100.00;99746.59;4428551;32;20457;-71
2022/08/07 01:26:15;;;;;;;2.17;1.65;;;;;;;15.14;100.00;99713.69;4430652;32;20131;-71
2022/08/07 01:28:47;;;;;;;4.10;1.33;;;;;;;15.08;100.00;99703.91;4431675;32;20042;-71
2022/08/07 01:31:16;;;;;;;1.73;1.40;;;;;;;15.29;100.00;99731.94;4433282;32;20063;-71
2022/08/07 01:33:46;;;;;;;3.60;1.55;;;;;;;15.38;100.00;99751.22;4431617;32;20038;-72
2022/08/07 01:36:13;;;;;;;1.45;1.35;;;;;;;15.29;100.00;99752.84;4433152;32;20662;-72
2022/08/07 01:38:41;;;;;;;6.07;1.60;;;;;;;14.95;100.00;99698.91;4416698;32;20035;-71
2022/08/07 01:41:10;;;;;;;3.60;1.40;;;;;;;15.19;100.00;99737.28;4417993;32;20063;-71
2022/08/07 01:43:36;;;;;;;2.08;1.73;;;;;;;15.09;100.00;99732.63;4417940;32;20034;-71
2022/08/07 01:46:04;;;;;;;5.72;1.45;;;;;;;15.10;100.00;99739.69;4415820;32;20038;-72
2022/08/07 01:48:31;;;;;;;2.85;0.98;;;;;;;14.80;100.00;99697.75;4417641;32;20111;-71
2022/08/07 01:51:02;;;;;;;5.18;1.42;;;;;;;14.87;100.00;99692.94;4417603;32;20071;-71
2022/08/07 01:53:33;;;;;;;4.93;1.20;;;;;;;14.83;100.00;99694.50;4448376;32;20051;-71
2022/08/07 01:56:08;;;;;;;2.60;1.48;;;;;;;15.03;100.00;99695.72;4447440;32;20034;-74
2022/08/07 01:58:49;;;;;;;5.77;2.30;;;;;;;15.16;100.00;99722.38;4448244;32;20029;-72
2022/08/07 02:01:22;;;;;;;1.40;1.15;;;;;;;15.06;100.00;99725.84;4447996;32;20067;-71
2022/08/07 02:03:56;;;;;;;3.17;1.33;;;;;;;14.88;100.00;99691.03;4446039;32;20033;-73
2022/08/07 02:06:26;;;;;;;4.15;1.33;;;;;;;15.18;100.00;99733.78;4447647;32;20080;-71
2022/08/07 02:08:56;;;;;;;3.83;1.48;;;;;;;14.89;100.00;99734.13;4450822;32;20037;-71
2022/08/07 02:11:23;;;;;;;1.02;1.00;;;;;;;14.62;100.00;99687.34;4465969;32;20029;-71
2022/08/07 02:13:52;;;;;;;7.95;1.98;;;;;;;14.62;100.00;99690.06;4463430;32;20058;-71
2022/08/07 02:16:23;;;;;;;3.62;1.50;;;;;;;14.93;100.00;99722.78;4465408;32;20075;-70
2022/08/07 02:18:49;;;;;;;3.97;1.58;;;;;;;14.81;100.00;99688.56;4465432;32;20071;-70
2022/08/07 02:21:17;;;;;;;1.40;1.25;;;;;;;14.30;100.00;99617.72;4464931;32;20055;-70
2022/08/07 02:23:44;;;;;;;1.50;1.33;;;;;;;14.37;100.00;99631.84;4463110;32;20040;-73
2022/08/07 02:26:12;;;;;;;4.75;1.77;;;;;;;14.83;100.00;99675.53;4416924;32;20082;-70
2022/08/07 02:28:39;;;;;;;8.73;1.90;;;;;;;15.04;100.00;99719.84;4401745;32;20034;-71
2022/08/07 02:31:07;;;;;;;4.40;1.55;;;;;;;15.09;100.00;99727.19;4401144;32;20045;-71
2022/08/07 02:33:36;;;;;;;1.30;1.27;;;;;;;15.06;100.00;99728.56;4398622;32;20030;-74
2022/08/07 02:36:05;;;;;;;2.42;2.20;;;;;;;14.97;100.00;99723.91;4401638;32;20050;-70
2022/08/07 02:38:37;;;;;;;3.33;1.60;;;;;;;14.79;100.00;99690.72;4401289;32;20023;-71
2022/08/07 02:41:05;;;;;;;3.03;1.50;;;;;;;14.88;100.00;99697.25;4401130;32;20056;-71
2022/08/07 02:43:35;;;;;;;2.55;1.30;;;;;;;14.70;100.00;99694.97;4399443;32;20376;-72
2022/08/07 02:46:03;;;;;;;3.03;1.27;;;;;;;14.87;100.00;99740.88;4401245;32;20082;-71
2022/08/07 02:48:31;;;;;;;2.95;1.50;;;;;;;14.24;100.00;99656.69;4399885;32;20111;-71
2022/08/07 02:51:10;;;;;;;8.13;1.65;;;;;;;14.86;100.00;99740.09;4401396;32;20030;-71
2022/08/07 02:53:42;;;;;;;4.40;1.90;;;;;;;14.64;100.00;99715.00;4399328;32;20421;-71
2022/08/07 02:56:13;;;;;;;7.95;1.37;;;;;;;14.88;100.00;99743.34;4401425;32;20031;-71
2022/08/07 02:58:41;;;;;;;2.42;1.45;;;;;;;15.04;100.00;99746.16;4370244;32;20058;-71
2022/08/07 03:01:09;;;;;;;3.70;1.40;;;;;;;15.09;100.00;99743.47;4356179;32;20027;-71
2022/08/07 03:03:37;;;;;;;4.97;1.60;;;;;;;15.02;100.00;99727.44;4368235;32;20027;-72
2022/08/07 03:06:04;;;;;;;2.53;1.62;;;;;;;14.89;100.00;99700.81;4386260;32;20194;-71
2022/08/07 03:08:30;;;;;;;2.47;1.45;;;;;;;14.83;100.00;99708.06;4385048;32;20031;-71
2022/08/07 03:10:58;;;;;;;4.93;1.58;;;;;;;15.05;100.00;99736.97;4386266;32;20031;-71
2022/08/07 03:13:25;;;;;;;4.37;1.58;;;;;;;15.15;100.00;99737.00;4385569;32;20039;-73
2022/08/07 03:15:52;;;;;;;8.23;1.42;;;;;;;15.07;100.00;99729.38;4384564;32;20049;-72
2022/08/07 03:18:20;;;;;;;6.43;1.85;;;;;;;14.90;100.00;99702.41;4385949;32;20105;-71
2022/08/07 03:20:47;;;;;;;10.85;1.85;;;;;;;15.13;100.00;99738.38;4385819;32;20051;-71
2022/08/07 03:23:15;;;;;;;1.52;1.40;;;;;;;15.04;100.00;99735.31;4385653;32;20077;-74
2022/08/07 03:25:43;;;;;;;2.67;1.55;;;;;;;14.53;100.00;99660.69;4383182;32;20385;-71
2022/08/07 03:28:15;;;;;;;6.07;1.35;;;;;;;14.95;100.00;99732.28;4369444;32;20346;-71
2022/08/07 03:30:42;;;;;;;7.83;2.10;;;;;;;14.82;100.00;99703.75;4383973;32;20086;-72
2022/08/07 03:33:09;;;;;;;2.45;1.23;;;;;;;15.11;100.00;99746.78;4385202;32;20035;-73
2022/08/07 03:35:38;;;;;;;3.47;1.45;;;;;;;15.08;100.00;99737.25;4382601;32;20048;-71
2022/08/07 03:38:07;;;;;;;2.78;1.80;;;;;;;15.03;100.00;99736.38;4385791;32;20057;-71
2022/08/07 03:40:34;;;;;;;3.87;1.37;;;;;;;15.14;100.00;99745.41;4385704;32;20384;-72
2022/08/07 03:43:02;;;;;;;2.55;1.62;;;;;;;15.23;100.00;99750.06;4385327;32;20112;-72
2022/08/07 03:45:31;;;;;;;5.47;1.70;;;;;;;15.17;100.00;99751.16;4383286;32;20049;-71
2022/08/07 03:47:58;;;;;;;3.20;1.90;;;;;;;15.00;100.00;99750.50;4385186;32;20174;-71
2022/08/07 03:50:26;;;;;;;3.22;1.83;;;;;;;14.76;100.00;99728.34;4384892;32;20438;-71
2022/08/07 03:55:31;;;;;;;1.58;1.30;;;;;;;14.76;100.00;99744.59;4431003;32;20379;-71
2022/08/07 03:58:00;;;;;;;3.72;1.50;;;;;;;14.86;100.00;99764.47;4431060;32;20363;-72
2022/08/07 04:00:29;;;;;;;4.28;1.85;;;;;;;14.38;100.00;99679.53;4464011;32;20047;-71
2022/08/07 04:02:57;;;;;;;2.42;1.50;;;;;;;14.48;100.00;99695.87;4463830;32;20037;-72
2022/08/07 04:05:24;;;;;;;5.75;1.65;;;;;;;14.87;100.00;99763.41;4461777;32;20067;-71
2022/08/07 04:07:51;;;;;;;6.90;1.90;;;;;;;14.99;100.00;99765.94;4464187;32;20114;-71
2022/08/07 04:10:19;;;;;;;7.50;1.90;;;;;;;14.97;100.00;99753.72;4463712;32;20044;-71
2022/08/07 04:12:47;;;;;;;3.80;1.73;;;;;;;14.88;100.00;99737.91;4463822;32;20121;-71
2022/08/07 04:15:15;;;;;;;3.80;2.05;;;;;;;14.85;100.00;99732.22;4461948;32;20037;-71
2022/08/07 04:17:43;;;;;;;5.00;2.03;;;;;;;15.18;100.00;99781.78;4463838;32;20075;-71
2022/08/07 04:20:11;;;;;;;3.85;1.80;;;;;;;15.17;100.00;99764.72;4463017;32;20059;-71
2022/08/07 04:22:39;;;;;;;1.70;1.45;;;;;;;15.31;100.00;99766.94;4463881;32;20391;-72
2022/08/07 04:25:08;;;;;;;2.17;1.70;;;;;;;15.33;100.00;99760.16;4461633;32;20045;-72
2022/08/07 04:27:35;;;;;;;4.00;1.67;;;;;;;15.36;100.00;99764.25;4463783;32;20055;-71
2022/08/07 04:30:03;;;;;;;3.85;1.75;;;;;;;15.35;100.00;99740.91;4463150;32;20072;-72
2022/08/07 04:32:32;;;;;;;4.22;1.95;;;;;;;15.35;100.00;99728.19;4463718;32;20103;-71
2022/08/07 04:35:06;;;;;;;7.22;2.20;;;;;;;15.66;100.00;99768.19;4462056;32;20025;-71
2022/08/07 04:37:34;;;;;;;2.17;1.48;;;;;;;15.71;100.00;99768.22;4463639;32;20401;-72
2022/08/07 04:40:03;;;;;;;4.05;1.42;;;;;;;15.55;100.00;99735.56;4463755;32;20062;-72
2022/08/07 04:42:31;;;;;;;2.60;1.60;;;;;;;15.80;100.00;99762.03;4413832;32;20060;-71
2022/08/07 04:45:01;;;;;;;4.05;1.55;;;;;;;15.79;100.00;99729.72;4412627;32;20042;-72
2022/08/07 04:47:43;;;;;;;6.15;2.45;;;;;;;15.80;100.00;99742.22;4414445;32;20057;-71
2022/08/07 04:50:27;;;;;;;6.95;1.62;;;;;;;16.08;100.00;99767.28;4398603;32;20155;-71
2022/08/07 04:52:57;;;;;;;1.85;1.35;;;;;;;16.16;100.00;99772.16;4398544;32;20416;-71
2022/08/07 04:56:03;;;;;;;2.60;1.52;;;;;;;15.98;100.00;99743.63;4400197;32;20039;-72
2022/08/07 04:59:02;;;;;;;4.62;1.35;;;;;;;16.23;100.00;99788.25;4399734;32;20035;-72
2022/08/07 05:01:45;;;;;;;5.75;2.22;;;;;;;16.23;100.00;99785.53;4399580;32;20050;-71
2022/08/07 05:04:19;;;;;;;1.80;1.20;;;;;;;16.22;100.00;99792.84;4402918;32;20022;-71
2022/08/07 05:07:10;;;;;;;6.57;1.40;;;;;;;16.17;100.00;99776.53;4400754;32;20038;-72
2022/08/07 05:09:36;;;;;;;3.15;1.45;;;;;;;16.34;100.00;99795.31;4402677;32;20088;-71
2022/08/07 05:12:08;;;;;;;2.80;1.25;;;;;;;16.46;100.00;99798.59;4402587;32;20510;-71
2022/08/07 05:14:39;;;;;;;3.92;1.45;;;;;;;16.27;100.00;99762.94;4401571;32;20031;-71
2022/08/07 05:17:10;;;;;;;5.00;1.37;;;;;;;16.56;100.00;99803.25;4402564;32;20039;-72
2022/08/07 05:19:40;;;;;;;1.50;0.98;;;;;;;16.50;100.00;99785.28;4407295;32;20056;-71
2022/08/07 05:22:09;;;;;;;3.30;2.08;;;;;;;16.57;100.00;99766.78;4385438;32;20051;-71
2022/08/07 05:24:38;;;;;;;1.20;1.08;;;;;;;16.89;100.00;99804.63;4410310;32;20043;-71
2022/08/07 05:27:08;;;;;;;1.83;1.15;;;;;;;16.47;100.00;99707.00;4417815;32;20064;-71
2022/08/07 05:29:38;;;;;;;1.23;0.93;;;;;;;16.32;100.00;99697.75;4401872;32;20178;-71
2022/08/07 05:32:06;;;;;;;4.00;1.10;;;;;;;16.79;100.00;99763.81;4399361;32;20031;-74
2022/08/07 05:34:34;;;;;;;3.50;1.00;;;;;;;16.93;100.00;99774.97;4405390;32;20787;-71
2022/08/07 05:37:03;;;;;;;1.50;1.17;;;;;;;17.11;100.00;99802.72;4417563;32;20103;-71
2022/08/07 05:39:30;;;;;;;3.95;1.25;;;;;;;16.96;100.00;99769.00;4385564;32;20452;-71
2022/08/07 05:41:57;;;;;;;2.83;1.05;;;;;;;17.10;100.00;99773.88;4383737;32;20070;-75
2022/08/07 05:44:25;;;;;;;2.28;0.95;;;;;;;17.31;100.00;99807.28;4385769;32;20069;-71
2022/08/07 05:46:52;;;;;;;6.45;1.62;;;;;;;17.15;100.00;99750.19;4386891;32;20034;-72
2022/08/07 05:49:20;;;;;;;10.32;1.48;;;;;;;17.55;100.00;99785.72;4387337;32;20035;-72
2022/08/07 05:51:47;;;;;;;3.65;1.25;;;;;;;17.79;100.00;99807.72;4385008;32;20069;-74
2022/08/07 05:54:17;;;;;;;2.95;1.20;;;;;;;17.61;100.00;99773.72;4330002;32;20581;-72
2022/08/07 05:56:46;;;;;;;4.40;1.17;;;;;;;17.78;100.00;99795.97;4327573;33;20370;-71
2022/08/07 05:59:16;;;;;;;4.07;1.05;;;;;;;17.99;100.00;99806.81;4327596;33;20044;-72
2022/08/07 06:01:45;;;;;;;1.77;0.88;;;;;;;17.86;100.00;99791.06;4340539;33;20422;-74
2022/08/07 06:04:14;;;;;;;7.28;1.50;;;;;;;17.96;100.00;99789.13;4341845;33;20070;-72
2022/08/07 06:06:41;;;;;;;1.77;0.82;;;;;;;17.79;100.00;99756.78;4342085;33;20425;-72
2022/08/07 06:09:09;;;;;;;4.50;1.45;;;;;;;18.00;100.00;99758.59;4342329;33;20020;-71
2022/08/07 06:11:36;;;;;;;10.60;1.62;;;;;;;18.36;100.00;99805.53;4369831;32;20040;-71
2022/08/07 06:14:04;;;;;;;1.10;1.00;;;;;;;18.17;100.00;99767.19;4369588;32;20040;-72
2022/08/07 06:16:32;;;;;;;1.37;1.27;;;;;;;18.03;100.00;99799.72;4400187;32;20026;-71
2022/08/07 06:19:01;;;;;;;2.45;1.00;;;;;;;18.05;100.00;99811.16;4402080;32;20420;-71
2022/08/07 06:21:28;;;;;;;1.65;0.80;;;;;;;18.09;100.00;99797.78;4401775;32;20038;-73
2022/08/07 06:23:55;;;;;;;3.58;1.02;;;;;;;18.03;100.00;99791.56;4400748;32;20035;-71
2022/08/07 06:26:23;;;;;;;3.72;0.70;;;;;;;18.13;100.00;99799.66;4432751;32;21003;-71
2022/08/07 06:28:55;;;;;;;3.83;0.98;;;;;;;18.34;100.00;99807.72;4434625;32;20064;-71
2022/08/07 06:31:22;;;;;;;0.73;0.73;;;;;;;18.10;100.00;99777.63;4434478;32;20075;-71
2022/08/07 06:33:49;;;;;;;2.25;0.98;;;;;;;18.39;100.00;99821.31;4432423;32;20052;-74
2022/08/07 06:36:16;;;;;;;3.37;1.05;;;;;;;18.18;100.00;99781.66;4434783;32;20887;-71
2022/08/07 06:38:43;;;;;;;2.03;0.70;;;;;;;18.37;100.00;99790.81;4434744;32;20325;-71
2022/08/07 06:41:20;;;;;;;2.22;1.25;;;;;;;18.44;100.00;99776.84;4434728;32;20052;-71
2022/08/07 06:43:48;;;;;;;0.77;0.70;;;;;;;18.43;100.00;99784.22;4433655;32;20466;-71
2022/08/07 06:46:16;;;;;;;2.85;1.10;;;;;;;18.28;100.00;99792.50;4434052;32;20050;-71
2022/08/07 06:48:42;;;;;;;4.93;1.08;;;;;;;18.17;100.00;99815.44;4434208;32;20060;-71
2022/08/07 06:51:14;;;;;;;2.10;0.88;;;;;;;17.99;100.00;99795.94;4436369;32;20038;-71
2022/08/07 06:53:41;;;;;;;3.15;1.08;;;;;;;18.13;100.00;99796.94;4463451;32;20059;-72
2022/08/07 06:56:11;;;;;;;5.10;0.98;;;;;;;18.37;100.00;99801.72;4432405;32;20050;-71
2022/08/07 06:58:39;;;;;;;1.30;1.00;;;;;;;18.66;100.00;99836.41;4432322;32;20046;-71
2022/08/07 07:01:08;;;;;;;3.60;1.20;;;;;;;18.63;100.00;99836.97;4431555;32;20325;-71
2022/08/07 07:03:39;;;;;;;1.12;1.12;;;;;;;18.42;100.00;99800.88;4432051;32;20123;-71
2022/08/07 07:06:07;;;;;;;5.68;1.25;;;;;;;18.54;100.00;99803.22;4430907;32;20049;-71
2022/08/07 07:08:35;;;;;;;0.80;0.80;;;;;;;18.54;100.00;99806.78;4431949;32;20042;-71
2022/08/07 07:11:04;;;;;;;1.98;1.20;;;;;;;18.73;100.00;99836.09;4431782;32;20074;-71
2022/08/07 07:13:43;;;;;;;1.15;0.85;;;;;;;18.82;100.00;99846.09;4429967;32;20125;-73
2022/08/07 07:16:17;;;;;;;3.03;0.95;;;;;;;18.76;100.00;99841.78;4431582;32;20695;-70
2022/08/07 07:18:50;;;;;;;6.15;1.50;;;;;;;18.69;100.00;99846.75;4431737;32;20063;-71
2022/08/07 07:21:26;;;;;;;1.70;0.98;;;;;;;18.50;100.00;99806.50;4430874;32;20067;-73
2022/08/07 07:23:54;;;;;;;1.50;1.00;;;;;;;18.62;100.00;99835.34;4431479;32;20786;-71
2022/08/07 07:26:22;;;;;;;0.90;0.90;;;;;;;18.63;100.00;99804.25;4436388;32;20415;-70
2022/08/07 07:28:56;;;;;;;1.80;0.80;;;;;;;18.61;100.00;99801.00;4463976;32;20055;-70
2022/08/07 07:31:29;;;;;;;3.12;0.93;;;;;;;18.93;100.00;99837.88;4463504;32;20036;-73
2022/08/07 07:34:05;;;;;;;4.62;1.10;;;;;;;18.88;100.00;99834.09;4464575;32;20059;-70
2022/08/07 07:36:33;;;;;;;2.10;1.10;;;;;;;18.92;100.00;99839.78;4464666;32;20042;-71
2022/08/07 07:39:01;;;;;;;2.45;1.02;;;;;;;18.77;100.00;99799.78;4464510;32;20041;-71
2022/08/07 07:41:31;;;;;;;5.95;1.85;;;;;;;18.85;100.00;99796.47;4462252;32;20336;-71
2022/08/07 07:44:00;;;;;;;2.87;1.55;;;;;;;18.92;100.00;99787.13;4464656;32;20050;-70
2022/08/07 07:46:33;;;;;;;4.70;1.30;;;;;;;18.95;100.00;99772.91;4464264;32;20063;-70
2022/08/07 07:49:01;;;;;;;1.15;0.90;;;;;;;19.34;100.00;99821.94;4464695;32;20059;-71
2022/08/07 07:51:36;;;;;;;2.92;1.80;;;;;;;19.31;100.00;99819.00;4463186;32;20045;-71
2022/08/07 07:54:04;;;;;;;1.27;1.00;;;;;;;19.39;100.00;99821.09;4464302;32;20071;-72
2022/08/07 07:56:32;;;;;;;3.78;1.00;;;;;;;19.19;100.00;99784.72;4464232;32;20069;-71
2022/08/07 07:59:03;;;;;;;2.50;0.80;;;;;;;19.26;100.00;99786.25;4463080;32;20464;-71
2022/08/07 08:01:31;;;;;;;;;;;;;;;19.28;95.37;99781.34;4429436;32;20360;-71
2022/08/07 08:04:02;;;;;;;2.62;0.98;;;;;;;19.49;87.94;99823.69;4431198;32;19955;-70
2022/08/07 08:06:31;;;;;;;2.25;0.90;;;;;;;19.23;93.58;99829.41;4431063;32;20436;-70
2022/08/07 08:09:00;;;;;;;4.95;0.90;;;;;;;19.27;100.00;99823.38;4430996;32;20042;-70
2022/08/07 08:11:28;;;;;;;6.20;0.95;;;;;;;19.47;100.00;99831.38;4428908;32;20042;-70
2022/08/07 08:13:54;;;;;;;3.72;1.27;;;;;;;19.59;100.00;99829.06;4415898;32;20119;-70
2022/08/07 08:16:26;;;;;;;4.82;0.98;;;;;;;19.05;100.00;99767.34;4415841;32;20039;-71
2022/08/07 08:18:54;;;;;;;2.08;1.15;;;;;;;19.38;100.00;99800.31;4415718;32;20056;-71
2022/08/07 08:27:04;;;;;;;3.15;0.93;;;;;;;19.55;100.00;99792.50;4413602;32;20056;-71
2022/08/07 08:29:39;;;;;;;3.50;1.40;;;;;;;19.82;97.31;99823.91;4415924;32;20086;-71
2022/08/07 08:32:07;;;;;;;3.15;0.80;;;;;;;19.76;89.56;99830.53;4420232;32;20026;-71
2022/08/07 08:34:37;;;;;;;3.90;0.70;;;;;;;19.87;94.01;99821.09;4429601;32;20033;-72
2022/08/07 08:37:05;;;;;;;2.83;0.70;;;;;;;19.47;96.32;99801.31;4431596;32;20363;-71
2022/08/07 08:39:33;;;;;;;4.07;0.90;;;;;;;19.55;96.61;99825.28;4434172;32;20026;-72
2022/08/07 08:42:06;;;;;;;2.45;1.10;;;;;;;19.52;95.21;99814.91;4433369;32;20042;-72
2022/08/07 08:44:45;;;;;;;0.98;0.73;;;;;;;19.66;95.57;99825.97;4444412;32;20046;-71
2022/08/07 08:47:25;;;;;;;0.80;0.80;;;;;;;19.85;96.26;99834.25;4466896;32;20046;-73
2022/08/07 08:50:16;;;;;;;5.00;0.98;;;;;;;20.10;96.22;99829.56;4464183;32;20056;-71
2022/08/07 08:52:42;;;;;;;1.77;0.68;;;;;;;20.25;95.90;99829.34;4465521;32;20063;-72
2022/08/07 08:55:14;;;;;;;6.95;1.20;;;;;;;20.05;97.80;99826.91;4466656;32;20029;-74
2022/08/07 08:57:47;;;;;;;;;;;;;;;19.47;98.53;99795.87;4466657;32;20028;-71
2022/08/07 09:00:15;;;;;;;6.60;0.68;;;;;;;19.77;88.71;99832.16;4466856;32;20322;-72
2022/08/07 09:03:00;;;;;;;0.70;0.70;;;;;;;19.80;86.44;99834.31;4466614;32;20085;-71
2022/08/07 09:05:41;;;;;;;0.70;0.70;;;;;;;19.41;82.43;99802.47;4401017;32;20055;-71
2022/08/07 09:08:30;;;;;;;2.15;0.70;;;;;;;19.76;88.51;99830.53;4402473;32;20027;-71
2022/08/07 09:11:09;;;;;;;0.82;0.80;;;;;;;19.99;91.57;99830.81;4400158;32;20050;-73
2022/08/07 09:13:55;;;;;;;1.65;0.93;;;;;;;19.92;82.76;99831.16;4370651;32;20389;-72
2022/08/07 09:16:27;;;;;;;2.12;0.77;;;;;;;19.74;85.63;99783.53;4370274;32;20416;-72
2022/08/07 09:19:33;;;;;;;0.65;0.65;;;;;;;19.56;84.91;99807.78;4373018;32;20069;-70
2022/08/07 09:22:28;;;;;;;2.47;0.82;;;;;;;19.89;80.47;99813.41;4372443;32;20051;-71
2022/08/07 09:25:09;;;;;;;1.95;1.25;;;;;;;20.09;79.19;99817.00;4372252;32;20023;-70
2022/08/07 09:28:18;;;;;;;2.50;0.70;;;;;;;20.23;77.95;99812.44;4372362;32;20176;-71
2022/08/07 09:30:59;;;;;;;3.20;0.85;;;;;;;20.19;75.34;99778.59;4372163;32;20024;-70
2022/08/07 09:33:51;;;;;;;2.40;0.80;;;;;;;20.30;78.98;99774.59;4372469;32;20061;-70
2022/08/07 09:36:31;;;;;;;0.60;0.60;;;;;;;20.57;86.98;99810.59;4384528;32;20035;-71
2022/08/07 09:39:13;;;;;;;0.70;0.70;;;;;;;20.02;77.59;99756.41;4402459;32;20096;-71
2022/08/07 09:42:09;;;;;;;2.60;0.95;;;;;;;20.23;79.84;99806.97;4413063;32;20038;-71
2022/08/07 09:44:44;;;;;;;0.57;0.50;;;;;;;20.20;87.31;99796.63;4446395;32;20443;-71
2022/08/07 09:47:10;;;;;;;2.53;0.75;;;;;;;20.42;89.37;99803.41;4464395;32;20034;-72
2022/08/07 09:49:48;;;;;;;2.90;0.70;;;;;;;20.13;80.29;99774.28;4447381;32;20067;-71
2022/08/07 09:52:20;;;;;;;2.22;0.70;;;;;;;20.60;77.20;99809.97;4448223;32;20418;-71
2022/08/07 09:55:11;;;;;;;3.33;1.00;;;;;;;20.48;72.61;99774.88;4446401;32;20041;-71
2022/08/07 09:58:34;;;;;;;1.67;0.77;;;;;;;20.31;76.52;99775.41;4448387;32;20025;-71
2022/08/07 10:01:34;;;;;;;2.92;0.80;;;;;;;20.40;81.13;99800.97;4372412;32;20043;-71
2022/08/07 10:04:13;;;;;;;3.85;1.25;;;;;;;20.63;78.72;99799.25;4372297;32;20077;-71
2022/08/07 10:07:03;;;;;;;1.42;0.80;;;;;;;20.51;81.52;99802.44;4370706;32;20039;-71
2022/08/07 10:09:38;;;;;;;2.65;1.00;;;;;;;20.87;71.75;99792.91;4372251;32;20432;-71
2022/08/07 10:12:43;;;;;;;3.15;1.00;;;;;;;21.11;79.15;99808.34;4372180;32;20047;-71
2022/08/07 10:15:28;;;;;;;3.00;0.85;;;;;;;21.13;74.45;99806.12;4370192;32;20065;-71
2022/08/07 10:17:55;;;;;;;2.50;1.02;;;;;;;21.15;74.58;99801.16;4369937;32;20073;-71
2022/08/07 10:20:30;;;;;;;2.28;0.75;;;;;;;21.24;76.11;99793.88;4377172;32;20493;-71
2022/08/07 10:23:24;;;;;;;3.83;0.90;;;;;;;20.92;72.74;99794.69;4370352;32;20051;-71
2022/08/07 10:26:00;;;;;;;1.33;0.70;;;;;;;20.46;68.34;99793.50;4370721;32;20463;-71
2022/08/07 10:28:49;;;;;;;1.27;0.90;;;;;;;20.49;74.50;99755.44;4371945;32;20043;-71
2022/08/07 10:31:37;;;;;;;2.28;1.27;;;;;;;20.66;78.08;99790.50;4388290;32;20072;-70
2022/08/07 10:34:19;;;;;;;0.75;0.68;;;;;;;20.41;75.50;99752.56;4415511;32;20056;-70
2022/08/07 10:37:06;;;;;;;2.30;0.80;;;;;;;20.65;70.74;99780.66;4416005;32;20064;-70
2022/08/07 10:39:42;;;;;;;1.08;1.00;;;;;;;20.67;67.67;99750.25;4416854;32;20913;-70
2022/08/07 10:42:25;;;;;;;3.78;0.80;;;;;;;21.22;67.35;99771.44;4414839;32;20056;-73
2022/08/07 10:45:00;;;;;;;1.02;1.00;;;;;;;21.53;64.92;99770.91;4416909;32;20511;-71
2022/08/07 10:47:46;;;;;;;1.23;0.80;;;;;;;21.41;66.00;99731.09;4416616;32;20616;-71
2022/08/07 10:50:41;;;;;;;1.77;0.80;;;;;;;21.56;64.36;99759.34;4416407;32;20097;-71
2022/08/07 10:53:36;;;;;;;0.77;0.50;;;;;;;21.67;63.82;99729.78;4420237;32;20038;-72
2022/08/07 10:56:35;;;;;;;2.00;1.00;;;;;;;22.31;71.27;99762.66;4451454;32;20045;-71
2022/08/07 10:59:28;;;;;;;0.80;0.80;;;;;;;22.46;62.92;99726.63;4465274;32;20071;-71
2022/08/07 11:02:00;;;;;;;0.55;0.55;;;;;;;22.40;53.21;99760.81;4463456;32;20332;-73
2022/08/07 11:04:32;;;;;;;2.17;0.73;;;;;;;22.14;55.76;99753.12;4464895;32;20083;-73
2022/08/07 11:07:10;;;;;;;0.52;0.52;;;;;;;22.02;57.09;99755.59;4464393;32;20459;-71
2022/08/07 11:09:44;;;;;;;0.62;0.62;;;;;;;21.84;59.71;99720.91;4462879;32;20037;-71
2022/08/07 11:12:18;;;;;;;2.15;0.85;;;;;;;22.44;58.52;99706.13;4465126;32;20041;-71
2022/08/07 11:15:01;;;;;;;6.00;1.17;;;;;;;23.46;57.54;99741.03;4464783;32;20360;-71
2022/08/07 11:17:33;;;;;;;1.52;0.77;;;;;;;24.01;51.65;99742.47;4464258;32;20057;-71
2022/08/07 11:20:13;;;;;;;0.98;0.95;;;;;;;23.96;49.79;99745.38;4450923;32;20194;-72
2022/08/07 11:23:19;;;;;;;0.50;0.50;;;;;;;24.04;48.09;99738.25;4462868;32;20038;-71
2022/08/07 11:25:53;;;;;;;1.00;0.70;;;;;;;23.15;51.97;99738.34;4464644;32;20037;-70
2022/08/07 11:28:27;;;;;;;0.85;0.68;;;;;;;22.58;52.16;99730.75;4462752;32;20064;-72
2022/08/07 11:31:12;;;;;;;3.20;0.60;;;;;;;22.42;49.69;99703.69;4464904;32;20033;-70
2022/08/07 11:33:48;;;;;;;0.73;0.68;;;;;;;22.49;50.97;99741.66;4464549;32;20040;-72
2022/08/07 11:36:24;;;;;;;2.70;0.70;;;;;;;22.28;54.14;99725.66;4464450;32;20076;-71
2022/08/07 11:39:28;;;;;;;0.88;0.88;;;;;;;22.53;53.14;99731.69;4464591;32;20068;-72
2022/08/07 11:42:16;;;;;;;2.22;0.75;;;;;;;23.10;47.45;99733.78;4464682;32;20038;-71
2022/08/07 11:44:48;;;;;;;0.93;0.80;;;;;;;23.28;45.28;99734.69;4463155;32;20037;-74
2022/08/07 11:47:52;;;;;;;0.75;0.65;;;;;;;24.32;45.27;99732.44;4464521;32;20048;-71
2022/08/07 11:50:41;;;;;;;0.88;0.73;;;;;;;24.46;42.73;99727.59;4462309;32;20071;-73
2022/08/07 11:53:30;;;;;;;1.10;0.95;;;;;;;25.49;43.57;99724.03;4462235;32;20431;-70
2022/08/07 11:56:14;;;;;;;0.70;0.70;;;;;;;24.87;39.91;99733.69;4462272;32;20037;-71
2022/08/07 11:59:07;;;;;;;2.10;0.70;;;;;;;24.28;42.82;99699.25;4464229;32;20070;-71
2022/08/07 12:01:55;;;;;;;3.30;1.00;;;;;;;25.24;40.97;99729.34;4432562;32;20052;-71
2022/08/07 12:04:33;;;;;;;8.43;1.10;;;;;;;24.47;43.14;99685.16;4463457;32;20118;-71
2022/08/07 12:07:18;;;;;;;2.08;1.02;;;;;;;25.74;42.19;99728.59;4463463;32;20037;-71